^^
Meteo Knjazevac Station Historical Data
Daily Summary for March 23, 2021 Units:  Metric    English   Both
Daily Weekly Monthly Yearly Custom
  High: Low: Average:
Temperature: 29.8 °C 12.6 °C 20.9 °C
Dew Point: 19.2 °C 12.2 °C 15.9 °C
Humidity: 99% 47% 76%
Wind Speed: 8km/h 0km/h 1.8km/h
Wind Gust: 16.1km/h - -
Wind- - SW
Pressure: 1019.9 hPa 1016.5 hPa -
Precipitation: 0 mm    
Historical Graphs
 
 
Tabular Data for March 23, 2021
Time Temperature Dew Point Pressure Wind Wind Speed Wind Gust Humidity Rainfall Rate (Hourly) solar Conditions
00:00 16.8 °C 15.3 °C 1019.9 hPa Calm   1.6 km/h 91% 0 mm 0 W/m2
00:10 16.6 °C 14.9 °C 1019.9 hPa WNW 1.6 km/h 3.2 km/h 90% 0 mm 0 W/m2
00:20 16.1 °C 14.7 °C 1019.9 hPa Calm   3.2 km/h 91% 0 mm 0 W/m2
00:30 16.1 °C 14.6 °C 1019.9 hPa NW 1.6 km/h 3.2 km/h 91% 0 mm 0 W/m2
00:40 15.9 °C 14.4 °C 1019.9 hPa West 1.6 km/h 3.2 km/h 91% 0 mm 0 W/m2
00:50 15.7 °C 14.6 °C 1019.9 hPa Calm   3.2 km/h 93% 0 mm 0 W/m2
01:00 15.6 °C 14.5 °C 1019.9 hPa Calm   3.2 km/h 93% 0 mm 0 W/m2
01:10 15.6 °C 14.4 °C 1019.9 hPa Calm   3.2 km/h 93% 0 mm 0 W/m2
01:20 15.4 °C 14.3 °C 1019.9 hPa West 1.6 km/h 3.2 km/h 93% 0 mm 0 W/m2
01:30 15.3 °C 14.3 °C 1019.9 hPa Calm   3.2 km/h 94% 0 mm 0 W/m2
01:40 15.1 °C 14.2 °C 1019.9 hPa Calm   3.2 km/h 94% 0 mm 0 W/m2
01:50 15 °C 14.1 °C 1019.9 hPa West 1.6 km/h 3.2 km/h 94% 0 mm 0 W/m2
02:00 14.9 °C 13.9 °C 1019.9 hPa Calm   3.2 km/h 94% 0 mm 0 W/m2
02:10 14.7 °C 13.7 °C 1019.9 hPa West 1.6 km/h 3.2 km/h 94% 0 mm 0 W/m2
02:20 14.6 °C 13.8 °C 1019.9 hPa Calm   3.2 km/h 95% 0 mm 0 W/m2
02:30 14.6 °C 13.8 °C 1019.9 hPa WNW 3.2 km/h 4.8 km/h 95% 0 mm 0 W/m2
02:40 14.5 °C 13.7 °C 1019.9 hPa West 1.6 km/h 4.8 km/h 95% 0 mm 0 W/m2
02:50 14.3 °C 13.5 °C 1019.9 hPa WNW 1.6 km/h 3.2 km/h 95% 0 mm 0 W/m2
03:00 14.3 °C 13.5 °C 1019.9 hPa Calm   3.2 km/h 95% 0 mm 0 W/m2
03:10 14.3 °C 13.5 °C 1019.9 hPa WNW 1.6 km/h 3.2 km/h 95% 0 mm 0 W/m2
03:20 14.1 °C 13.3 °C 1019.9 hPa Calm   3.2 km/h 95% 0 mm 0 W/m2
03:30 14 °C 13.2 °C 1019.9 hPa WSW 1.6 km/h 3.2 km/h 95% 0 mm 0 W/m2
03:40 13.9 °C 13.3 °C 1019.9 hPa WNW 1.6 km/h 4.8 km/h 96% 0 mm 0 W/m2
03:50 13.8 °C 13.2 °C 1019.9 hPa Calm   3.2 km/h 96% 0 mm 0 W/m2
04:00 13.6 °C 13 °C 1019.9 hPa Calm   3.2 km/h 96% 0 mm 0 W/m2
04:10 13.5 °C 12.9 °C 1019.9 hPa Calm   3.2 km/h 96% 0 mm 0 W/m2
04:20 13.4 °C 12.6 °C 1019.9 hPa Calm   3.2 km/h 95% 0 mm 0 W/m2
04:30 13.2 °C 12.6 °C 1019.9 hPa WNW 1.6 km/h 3.2 km/h 96% 0 mm 0 W/m2
04:40 13.1 °C 12.5 °C 1019.9 hPa WSW 3.2 km/h 4.8 km/h 96% 0 mm 0 W/m2
04:50 13 °C 12.4 °C 1019.9 hPa West 1.6 km/h 4.8 km/h 96% 0 mm 0 W/m2
05:00 13 °C 12.4 °C 1019.9 hPa Calm   3.2 km/h 96% 0 mm 0 W/m2
05:10 12.9 °C 12.3 °C 1019.9 hPa Calm   3.2 km/h 96% 0 mm 0 W/m2
05:20 12.8 °C 12.5 °C 1019.9 hPa NW 1.6 km/h 3.2 km/h 98% 0 mm 7 W/m2
05:30 12.8 °C 12.5 °C 1019.9 hPa NNW 1.6 km/h 4.8 km/h 98% 0 mm 14 W/m2
05:40 12.8 °C 12.2 °C 1019.9 hPa Calm   3.2 km/h 96% 0 mm 22 W/m2
05:50 12.7 °C 12.4 °C 1019.9 hPa NW 1.6 km/h 3.2 km/h 98% 0 mm 32 W/m2
06:00 12.6 °C 12.3 °C 1019.9 hPa West 1.6 km/h 3.2 km/h 98% 0 mm 48 W/m2
06:10 12.6 °C 12.3 °C 1019.9 hPa Calm   3.2 km/h 98% 0 mm 58 W/m2
06:20 12.6 °C 12.3 °C 1019.9 hPa West 1.6 km/h 3.2 km/h 98% 0 mm 64 W/m2
06:30 12.7 °C 12.4 °C 1019.9 hPa Calm   4.8 km/h 98% 0 mm 74 W/m2
06:40 12.8 °C 12.6 °C 1019.9 hPa Calm   3.2 km/h 99% 0 mm 93 W/m2
06:50 12.9 °C 12.7 °C 1019.9 hPa West 3.2 km/h 3.2 km/h 99% 0 mm 111 W/m2
07:00 13.2 °C 13.1 °C 1019.9 hPa WNW 1.6 km/h 4.8 km/h 99% 0 mm 155 W/m2
07:10 13.4 °C 13.2 °C 1019.9 hPa WNW 1.6 km/h 4.8 km/h 99% 0 mm 133 W/m2
07:20 13.8 °C 13.7 °C 1019.9 hPa West 1.6 km/h 4.8 km/h 99% 0 mm 146 W/m2
07:30 14 °C 13.8 °C 1019.9 hPa WSW 1.6 km/h 3.2 km/h 99% 0 mm 196 W/m2
07:40 14.3 °C 14.2 °C 1019.9 hPa Calm   3.2 km/h 99% 0 mm 325 W/m2
07:50 14.7 °C 14.6 °C 1019.9 hPa West 1.6 km/h 4.8 km/h 99% 0 mm 234 W/m2
08:00 15.1 °C 14.9 °C 1019.9 hPa WSW 1.6 km/h 3.2 km/h 99% 0 mm 375 W/m2
08:10 15.5 °C 15.2 °C 1019.9 hPa Calm   3.2 km/h 98% 0 mm 415 W/m2
08:20 16 °C 15.2 °C 1019.9 hPa Calm   4.8 km/h 95% 0 mm 433 W/m2
08:30 16.4 °C 15.4 °C 1019.9 hPa WNW 1.6 km/h 3.2 km/h 94% 0 mm 490 W/m2
08:40 17 °C 15.8 °C 1019.9 hPa Calm   4.8 km/h 93% 0 mm 528 W/m2
08:50 17.5 °C 16 °C 1019.9 hPa SSW 1.6 km/h 4.8 km/h 91% 0 mm 562 W/m2
09:00 18.2 °C 16.5 °C 1019.9 hPa WNW 1.6 km/h 4.8 km/h 90% 0 mm 582 W/m2
09:10 19.5 °C 17.1 °C 1019.9 hPa WSW 1.6 km/h 4.8 km/h 86% 0 mm 654 W/m2
09:20 20.6 °C 17.8 °C 1019.9 hPa WSW 1.6 km/h 4.8 km/h 84% 0 mm 680 W/m2
09:30 21.4 °C 17.8 °C 1019.9 hPa West 1.6 km/h 11.3 km/h 80% 0 mm 597 W/m2
09:40 21.7 °C 18.1 °C 1019.9 hPa Calm   4.8 km/h 80% 0 mm 481 W/m2
09:50 22.1 °C 18.1 °C 1019.5 hPa Calm   3.2 km/h 78% 0 mm 687 W/m2
10:00 22.5 °C 17.8 °C 1019.5 hPa West 1.6 km/h 8 km/h 75% 0 mm 633 W/m2
10:10 23.1 °C 18 °C 1019.5 hPa West 1.6 km/h 4.8 km/h 73% 0 mm 796 W/m2
10:20 23.8 °C 18 °C 1019.5 hPa West 1.6 km/h 6.4 km/h 70% 0 mm 816 W/m2
10:30 24.6 °C 18.1 °C 1019.2 hPa SW 1.6 km/h 6.4 km/h 67% 0 mm 835 W/m2
10:40 25.1 °C 18.1 °C 1019.5 hPa NNE 4.8 km/h 9.7 km/h 65% 0 mm 852 W/m2
10:50 25.5 °C 18.4 °C 1019.2 hPa NNE 4.8 km/h 9.7 km/h 65% 0 mm 342 W/m2
11:00 25.6 °C 18.3 °C 1019.2 hPa NNE 3.2 km/h 9.7 km/h 64% 0 mm 883 W/m2
11:10 26 °C 18.4 °C 1019.2 hPa NE 1.6 km/h 11.3 km/h 63% 0 mm 897 W/m2
11:20 26.5 °C 18.6 °C 1019.2 hPa NE 4.8 km/h 16.1 km/h 62% 0 mm 698 W/m2
11:30 26.5 °C 17.8 °C 1018.8 hPa NNE 1.6 km/h 11.3 km/h 59% 0 mm 919 W/m2
11:40 26.7 °C 18 °C 1018.8 hPa North 3.2 km/h 9.7 km/h 59% 0 mm 928 W/m2
11:50 26.9 °C 18.2 °C 1018.8 hPa NNE 1.6 km/h 11.3 km/h 59% 0 mm 936 W/m2
12:00 27.1 °C 18.1 °C 1018.5 hPa NNE 1.6 km/h 11.3 km/h 58% 0 mm 942 W/m2
12:10 27.4 °C 18.1 °C 1018.5 hPa NE 1.6 km/h 8 km/h 57% 0 mm 947 W/m2
12:20 27.5 °C 17.7 °C 1018.5 hPa NNW 1.6 km/h 9.7 km/h 55% 0 mm 950 W/m2
12:30 27.7 °C 17.8 °C 1018.2 hPa NE 3.2 km/h 9.7 km/h 55% 0 mm 951 W/m2
12:40 28 °C 18.1 °C 1018.2 hPa NNE 1.6 km/h 14.5 km/h 55% 0 mm 802 W/m2
12:50 28.3 °C 19.2 °C 1018.2 hPa NNE 3.2 km/h 11.3 km/h 58% 0 mm 950 W/m2
13:00 28.6 °C 18.7 °C 1018.2 hPa NNE 4.8 km/h 12.9 km/h 55% 0 mm 947 W/m2
13:10 28.7 °C 18.8 °C 1017.8 hPa NNE 4.8 km/h 11.3 km/h 55% 0 mm 592 W/m2
13:20 28.4 °C 17.9 °C 1017.8 hPa North 8 km/h 16.1 km/h 53% 0 mm 360 W/m2
13:30 28 °C 17.8 °C 1017.8 hPa NNW 1.6 km/h 9.7 km/h 54% 0 mm 272 W/m2
13:40 27.6 °C 17.7 °C 1017.8 hPa NW 3.2 km/h 9.7 km/h 55% 0 mm 325 W/m2
13:50 27.6 °C 16.8 °C 1017.8 hPa NW 4.8 km/h 9.7 km/h 52% 0 mm 604 W/m2
14:00 27.6 °C 17.4 °C 1017.8 hPa WNW 4.8 km/h 11.3 km/h 54% 0 mm 713 W/m2
14:10 27.6 °C 16.2 °C 1017.8 hPa NNW 3.2 km/h 11.3 km/h 50% 0 mm 883 W/m2
14:20 27.8 °C 17.1 °C 1017.5 hPa North 1.6 km/h 8 km/h 52% 0 mm 367 W/m2
14:30 27.9 °C 15.9 °C 1017.5 hPa Calm   6.4 km/h 48% 0 mm 714 W/m2
14:40 28.1 °C 16.4 °C 1017.5 hPa Calm   4.8 km/h 49% 0 mm 835 W/m2
15:00 29 °C 16.6 °C 1017.2 hPa NE 1.6 km/h 11.3 km/h 47% 0 mm 796 W/m2
15:10 29.3 °C 16.8 °C 1017.2 hPa North 8 km/h 14.5 km/h 47% 0 mm 775 W/m2
15:20 29.3 °C 17.8 °C 1017.2 hPa NNE 1.6 km/h 14.5 km/h 50% 0 mm 753 W/m2
15:30 29.6 °C 17.8 °C 1017.2 hPa NNE 1.6 km/h 11.3 km/h 49% 0 mm 643 W/m2
15:40 29.4 °C 17.9 °C 1017.2 hPa North 3.2 km/h 12.9 km/h 50% 0 mm 705 W/m2
15:50 29.4 °C 17.2 °C 1017.2 hPa North 8 km/h 11.3 km/h 48% 0 mm 680 W/m2
16:00 29.5 °C 17.7 °C 1017.2 hPa North 4.8 km/h 11.3 km/h 49% 0 mm 653 W/m2
16:10 29.7 °C 17.8 °C 1017.2 hPa NNW 3.2 km/h 11.3 km/h 49% 0 mm 626 W/m2
16:20 29.8 °C 17.9 °C 1017.2 hPa North 3.2 km/h 11.3 km/h 49% 0 mm 599 W/m2
16:30 29.7 °C 17.2 °C 1016.8 hPa NNE 4.8 km/h 8 km/h 47% 0 mm 570 W/m2
16:40 29.4 °C 17.2 °C 1016.8 hPa North 4.8 km/h 12.9 km/h 48% 0 mm 205 W/m2
16:50 28.9 °C 16.8 °C 1016.8 hPa NNW 3.2 km/h 14.5 km/h 48% 0 mm 511 W/m2
17:00 29 °C 16.9 °C 1016.8 hPa North 4.8 km/h 11.3 km/h 48% 0 mm 180 W/m2
17:10 28.6 °C 16.8 °C 1016.8 hPa NNW 3.2 km/h 11.3 km/h 49% 0 mm 451 W/m2
17:20 28.7 °C 16.9 °C 1016.8 hPa North 3.2 km/h 11.3 km/h 49% 0 mm 420 W/m2
17:30 28.7 °C 16.6 °C 1016.5 hPa North 1.6 km/h 9.7 km/h 48% 0 mm 175 W/m2
17:40 28.6 °C 16.8 °C 1016.5 hPa NNW 1.6 km/h 8 km/h 49% 0 mm 201 W/m2
17:50 28.6 °C 16.8 °C 1016.8 hPa NNW 3.2 km/h 9.7 km/h 49% 0 mm 230 W/m2
18:00 28.4 °C 17 °C 1016.5 hPa NNW 3.2 km/h 8 km/h 50% 0 mm 209 W/m2
18:10 28.1 °C 17.6 °C 1016.5 hPa NNW 3.2 km/h 8 km/h 53% 0 mm 97 W/m2
18:20 27.6 °C 17.2 °C 1016.8 hPa NNW 1.6 km/h 8 km/h 53% 0 mm 110 W/m2
18:30 27.2 °C 17.9 °C 1016.5 hPa NNW 1.6 km/h 4.8 km/h 57% 0 mm 95 W/m2
18:40 26.9 °C 18.2 °C 1016.8 hPa NW 1.6 km/h 3.2 km/h 59% 0 mm 100 W/m2
18:50 26.5 °C 18.6 °C 1016.8 hPa WNW 1.6 km/h 3.2 km/h 62% 0 mm 91 W/m2
19:00 25.9 °C 18.6 °C 1016.8 hPa South 1.6 km/h 6.4 km/h 64% 0 mm 77 W/m2
19:10 25.6 °C 18.6 °C 1016.8 hPa SW 1.6 km/h 4.8 km/h 65% 0 mm 62 W/m2
19:20 25.3 °C 18.7 °C 1016.8 hPa South 3.2 km/h 4.8 km/h 67% 0 mm 47 W/m2
19:30 24.8 °C 18.5 °C 1016.8 hPa South 3.2 km/h 6.4 km/h 68% 0 mm 35 W/m2
19:40 24.3 °C 18.2 °C 1017.2 hPa SW 3.2 km/h 4.8 km/h 69% 0 mm 23 W/m2
19:50 23.9 °C 17.9 °C 1017.2 hPa South 3.2 km/h 6.4 km/h 69% 0 mm 13 W/m2
20:00 23.4 °C 17.6 °C 1017.2 hPa South 1.6 km/h 6.4 km/h 70% 0 mm 5 W/m2
20:10 23.1 °C 18 °C 1017.2 hPa SW 1.6 km/h 4.8 km/h 73% 0 mm 0 W/m2
20:20 22.8 °C 18.1 °C 1017.2 hPa SW 1.6 km/h 3.2 km/h 75% 0 mm 0 W/m2
20:30 22.4 °C 17.6 °C 1017.5 hPa SSW 1.6 km/h 4.8 km/h 74% 0 mm 0 W/m2
20:40 21.8 °C 16.9 °C 1017.5 hPa South 1.6 km/h 9.7 km/h 74% 0 mm 0 W/m2
20:50 21.4 °C 16.8 °C 1017.5 hPa South 1.6 km/h 6.4 km/h 75% 0 mm 0 W/m2
21:00 21 °C 16.4 °C 1017.8 hPa SSW 4.8 km/h 8 km/h 75% 0 mm 0 W/m2
21:10 20.6 °C 16.4 °C 1017.8 hPa South 1.6 km/h 6.4 km/h 77% 0 mm 0 W/m2
21:20 20.3 °C 16.1 °C 1017.8 hPa South 1.6 km/h 4.8 km/h 77% 0 mm 0 W/m2
21:30 19.9 °C 15.9 °C 1017.8 hPa SSE 1.6 km/h 4.8 km/h 78% 0 mm 0 W/m2
21:40 19.6 °C 15.7 °C 1017.8 hPa Calm   4.8 km/h 78% 0 mm 0 W/m2
21:50 19.4 °C 15.8 °C 1017.8 hPa Calm   1.6 km/h 80% 0 mm 0 W/m2
22:00 19.2 °C 16.3 °C 1017.8 hPa Calm   1.6 km/h 83% 0 mm 0 W/m2
22:10 19 °C 16.3 °C 1017.8 hPa Calm   3.2 km/h 84% 0 mm 0 W/m2
22:20 18.9 °C 16.1 °C 1017.8 hPa Calm   3.2 km/h 84% 0 mm 0 W/m2
22:30 18.5 °C 15.9 °C 1017.8 hPa Calm   3.2 km/h 85% 0 mm 0 W/m2
22:40 18.3 °C 15.7 °C 1018.2 hPa Calm   3.2 km/h 85% 0 mm 0 W/m2
22:50 18 °C 15.6 °C 1018.2 hPa WSW 3.2 km/h 6.4 km/h 86% 0 mm 0 W/m2
23:00 17.7 °C 15.3 °C 1018.2 hPa Calm   8 km/h 86% 0 mm 0 W/m2
23:10 17.5 °C 15.1 °C 1018.2 hPa WSW 3.2 km/h 3.2 km/h 86% 0 mm 0 W/m2
23:20 17.2 °C 14.8 °C 1018.2 hPa West 1.6 km/h 3.2 km/h 86% 0 mm 0 W/m2
23:30 17.1 °C 14.7 °C 1018.5 hPa Calm   4.8 km/h 86% 0 mm 0 W/m2
23:40 17 °C 14.7 °C 1018.5 hPa SSE 1.6 km/h 4.8 km/h 86% 0 mm 0 W/m2
23:50 16.9 °C 14.9 °C 1018.5 hPa Calm   3.2 km/h 88% 0 mm 0 W/m2
Knjazevac, Serbia
Compliments of Weather Underground - 2 mb